createdAt,value
2018-09-18T00:05:54.403Z,25.9
2018-09-18T00:15:53.635Z,25.9
2018-09-18T00:25:52.867Z,25.9
2018-09-18T00:35:52.099Z,25.9
2018-09-18T00:45:51.333Z,25.9
2018-09-18T00:55:50.561Z,25.9
2018-09-18T01:05:49.792Z,25.9
2018-09-18T01:15:49.026Z,26
2018-09-18T01:25:48.258Z,25.9
2018-09-18T01:35:47.490Z,26
2018-09-18T01:45:46.720Z,25.9
2018-09-18T01:55:45.950Z,25.9
2018-09-18T02:05:45.185Z,26
2018-09-18T02:15:44.410Z,26
2018-09-18T02:25:43.642Z,25.9
2018-09-18T02:35:42.872Z,26
2018-09-18T02:45:42.104Z,25.9
2018-09-18T02:55:41.387Z,25.9
2018-09-18T03:05:40.563Z,25.9
2018-09-18T03:15:39.800Z,25.9
2018-09-18T03:25:39.029Z,25.9
2018-09-18T03:35:38.299Z,25.9
2018-09-18T03:45:37.501Z,25.8
2018-09-18T03:55:36.727Z,25.8
2018-09-18T04:05:35.967Z,25.8
2018-09-18T04:15:35.201Z,25.8
2018-09-18T04:25:34.424Z,25.8
2018-09-18T04:35:33.657Z,25.8
2018-09-18T04:45:32.886Z,25.8
2018-09-18T04:55:32.117Z,25.8
2018-09-18T05:05:31.349Z,25.7
2018-09-18T05:15:30.579Z,25.7
2018-09-18T05:25:29.911Z,25.7
2018-09-18T05:35:29.040Z,25.7
2018-09-18T05:45:28.270Z,25.6
2018-09-18T05:55:27.502Z,25.6
2018-09-18T06:05:26.731Z,25.6
2018-09-18T06:15:25.959Z,25.6
2018-09-18T06:25:25.190Z,25.6
2018-09-18T06:35:24.419Z,25.6
2018-09-18T06:45:23.650Z,25.6
2018-09-18T06:55:22.880Z,25.6
2018-09-18T07:05:22.111Z,25.6
2018-09-18T07:15:21.344Z,25.6
2018-09-18T07:25:20.574Z,25.6
2018-09-18T07:35:19.801Z,25.6
2018-09-18T07:45:19.030Z,25.6
2018-09-18T07:55:18.260Z,25.6
2018-09-18T08:05:17.498Z,25.6
2018-09-18T08:15:16.724Z,25.6
2018-09-18T08:25:16.003Z,25.7
2018-09-18T08:35:15.181Z,25.7
2018-09-18T08:45:14.416Z,25.7
2018-09-18T08:55:13.642Z,25.7
2018-09-18T09:05:12.875Z,25.7
2018-09-18T09:15:12.162Z,25.8
2018-09-18T09:25:11.336Z,25.7
2018-09-18T09:35:10.572Z,25.8
2018-09-18T09:45:09.889Z,25.7
2018-09-18T09:55:09.033Z,25.7
2018-09-18T10:05:08.305Z,25.7
2018-09-18T10:15:07.517Z,25.8
2018-09-18T10:25:06.728Z,25.8
2018-09-18T10:35:05.960Z,25.8
2018-09-18T10:45:05.210Z,25.8
2018-09-18T10:55:04.417Z,25.8
2018-09-18T11:05:03.646Z,25.8
2018-09-18T11:15:03.001Z,25.8
2018-09-18T11:25:02.156Z,25.7
2018-09-18T11:35:01.343Z,25.7
2018-09-18T11:45:00.571Z,25.8
2018-09-18T11:54:59.803Z,25.8
2018-09-18T12:04:59.039Z,25.7
2018-09-18T12:14:58.261Z,25.7
2018-09-18T12:24:57.488Z,25.8
2018-09-18T12:34:56.718Z,25.8
2018-09-18T12:44:55.947Z,25.8
2018-09-18T12:54:55.180Z,25.8
2018-09-18T13:04:54.411Z,25.8
2018-09-18T13:14:53.648Z,25.8
2018-09-18T13:24:52.873Z,25.8
2018-09-18T13:34:52.100Z,25.8
2018-09-18T13:44:51.330Z,25.8
2018-09-18T13:54:50.557Z,25.8
2018-09-18T14:04:49.829Z,25.8
2018-09-18T14:14:49.055Z,25.8
2018-09-18T14:24:48.248Z,25.8
2018-09-18T14:34:47.512Z,25.7
2018-09-18T14:44:46.709Z,25.7
2018-09-18T14:54:45.932Z,25.7
2018-09-18T15:04:45.191Z,25.7
2018-09-18T15:14:44.400Z,25.7
2018-09-18T15:24:43.624Z,25.6
2018-09-18T15:34:42.856Z,25.7
2018-09-18T15:44:42.080Z,25.7
2018-09-18T15:54:41.317Z,25.7
2018-09-18T16:04:40.542Z,25.6
2018-09-18T16:14:39.835Z,25.6
2018-09-18T16:24:39.018Z,25.4
2018-09-18T16:34:38.238Z,25.3
2018-09-18T16:44:37.468Z,25.3
2018-09-18T16:54:36.847Z,25.2
2018-09-18T17:04:36.023Z,25.1
2018-09-18T17:14:35.168Z,24.9
2018-09-18T17:24:34.458Z,24.8
2018-09-18T17:34:33.632Z,24.7
2018-09-18T17:44:32.859Z,24.8
2018-09-18T17:54:32.096Z,24.8
2018-09-18T18:04:31.324Z,24.8
2018-09-18T18:14:30.557Z,24.8
2018-09-18T18:24:29.792Z,24.9
2018-09-18T18:34:29.029Z,25.1
2018-09-18T18:44:28.261Z,25.3
2018-09-18T18:54:27.537Z,25.4
2018-09-18T19:04:26.728Z,25.5
2018-09-18T19:14:26.009Z,25.6
2018-09-18T19:24:25.192Z,25.6
2018-09-18T19:34:24.426Z,25.6
2018-09-18T19:44:23.656Z,25.6
2018-09-18T19:54:22.887Z,25.6
2018-09-18T20:04:22.119Z,25.7
2018-09-18T20:14:21.355Z,25.8
2018-09-18T20:24:20.583Z,25.8
2018-09-18T20:34:19.866Z,25.8
2018-09-18T20:44:19.049Z,25.8
2018-09-18T20:54:18.284Z,25.9
2018-09-18T21:04:17.518Z,25.8
2018-09-18T21:14:16.746Z,25.9
2018-09-18T21:24:15.981Z,25.9
2018-09-18T21:34:15.222Z,25.9
2018-09-18T21:44:14.440Z,25.9
2018-09-18T21:54:13.679Z,25.9
2018-09-18T22:04:12.903Z,25.9
2018-09-18T22:14:12.133Z,25.9
2018-09-18T22:24:11.365Z,25.9
2018-09-18T22:34:10.594Z,25.9
2018-09-18T22:44:09.826Z,25.9
2018-09-18T22:54:09.059Z,25.9
2018-09-18T23:04:08.288Z,25.9
2018-09-18T23:14:07.519Z,26
2018-09-18T23:24:06.754Z,25.9
2018-09-18T23:34:05.982Z,25.9
2018-09-18T23:44:05.215Z,26
2018-09-18T23:54:04.449Z,25.9
